createdAt,value
2022-12-27T00:00:17.476Z,6.32
2022-12-27T00:00:53.056Z,10.40
2022-12-27T00:01:29.648Z,8.73
2022-12-27T00:02:03.612Z,7.68
2022-12-27T00:02:38.474Z,7.22
2022-12-27T00:03:13.202Z,7.88
2022-12-27T00:03:46.365Z,7.82
2022-12-27T00:04:20.543Z,8.95
2022-12-27T00:04:55.358Z,7.47
2022-12-27T00:05:28.845Z,7.53
2022-12-27T00:06:07.095Z,7.25
2022-12-27T00:06:42.227Z,8.52
2022-12-27T00:07:15.610Z,7.75
2022-12-27T00:07:49.266Z,7.25
2022-12-27T00:08:24.205Z,7.68
2022-12-27T00:08:58.189Z,5.47
2022-12-27T00:09:32.954Z,7.40
2022-12-27T00:10:08.743Z,7.30
2022-12-27T00:10:41.809Z,9.13
2022-12-27T00:11:16.765Z,8.90
2022-12-27T00:11:56.356Z,7.45
2022-12-27T00:12:32.818Z,6.28
2022-12-27T00:13:06.101Z,10.10
2022-12-27T00:13:42.805Z,7.95
2022-12-27T00:14:18.121Z,6.57
2022-12-27T00:14:51.642Z,9.25
2022-12-27T00:15:26.444Z,6.82
2022-12-27T00:16:04.006Z,10.02
2022-12-27T00:16:39.549Z,6.15
2022-12-27T00:17:13.594Z,7.82
2022-12-27T00:17:48.185Z,6.60
2022-12-27T00:18:23.351Z,7.82
2022-12-27T00:18:56.498Z,6.72
2022-12-27T00:19:30.887Z,10.77
2022-12-27T00:20:11.322Z,6.70
2022-12-27T00:20:45.274Z,8.57
2022-12-27T00:21:21.298Z,7.82
2022-12-27T00:21:54.937Z,6.72
2022-12-27T00:22:28.656Z,8.57
2022-12-27T00:23:03.473Z,6.15
2022-12-27T00:23:37.436Z,6.47
2022-12-27T00:24:11.716Z,8.80
2022-12-27T00:24:45.830Z,7.53
2022-12-27T00:25:19.470Z,5.72
2022-12-27T00:25:52.495Z,6.65
2022-12-27T00:26:26.914Z,7.45
2022-12-27T00:27:01.431Z,7.85
2022-12-27T00:27:34.472Z,8.57
2022-12-27T00:28:07.755Z,7.97
2022-12-27T00:28:42.551Z,7.43
2022-12-27T00:29:15.519Z,6.72
2022-12-27T00:29:49.732Z,8.07
2022-12-27T00:30:24.459Z,6.38
2022-12-27T00:30:59.216Z,8.65
2022-12-27T00:31:32.794Z,10.70
2022-12-27T00:32:08.618Z,7.97
2022-12-27T00:32:43.293Z,9.00
2022-12-27T00:33:17.393Z,6.70
2022-12-27T00:33:53.223Z,6.88
2022-12-27T00:34:26.799Z,8.45
2022-12-27T00:35:00.585Z,7.15
2022-12-27T00:35:34.723Z,8.23
2022-12-27T00:36:09.671Z,7.68
2022-12-27T00:36:42.683Z,6.88
2022-12-27T00:37:17.362Z,7.07
2022-12-27T00:37:51.969Z,6.82
2022-12-27T00:38:25.576Z,10.73
2022-12-27T00:39:00.161Z,7.15
2022-12-27T00:39:33.700Z,8.10
2022-12-27T00:40:08.708Z,6.88
2022-12-27T00:40:44.719Z,6.18
2022-12-27T00:41:18.613Z,10.93
2022-12-27T00:41:52.649Z,8.98
2022-12-27T00:42:27.687Z,8.48
2022-12-27T00:43:01.135Z,6.97
2022-12-27T00:43:37.066Z,6.43
2022-12-27T00:44:11.205Z,6.30
2022-12-27T00:44:45.105Z,7.32
2022-12-27T00:45:18.967Z,7.35
2022-12-27T00:45:53.060Z,6.90
2022-12-27T00:46:27.738Z,7.20
2022-12-27T00:47:03.244Z,8.30
2022-12-27T00:47:39.074Z,6.22
2022-12-27T00:48:13.212Z,6.90
2022-12-27T00:48:47.245Z,7.13
2022-12-27T00:49:21.298Z,8.95
2022-12-27T00:49:54.520Z,7.13
2022-12-27T00:50:28.042Z,7.00
2022-12-27T00:51:03.954Z,8.90
2022-12-27T00:51:39.037Z,9.20
2022-12-27T00:52:12.534Z,8.20
2022-12-27T00:52:47.005Z,7.95
2022-12-27T00:53:22.653Z,9.80
2022-12-27T00:53:57.896Z,8.45
2022-12-27T00:54:32.924Z,7.90
2022-12-27T00:55:07.323Z,7.97
2022-12-27T00:55:46.045Z,9.23
2022-12-27T00:56:21.343Z,7.82
2022-12-27T00:56:55.866Z,7.20
2022-12-27T00:57:29.317Z,9.13
2022-12-27T00:58:02.800Z,9.27
2022-12-27T00:58:40.782Z,7.57
2022-12-27T00:59:14.591Z,7.47
2022-12-27T00:59:48.482Z,8.38
2022-12-27T01:00:22.997Z,11.38
2022-12-27T01:00:56.300Z,8.60
2022-12-27T01:01:30.982Z,7.40
2022-12-27T01:02:05.402Z,9.32
2022-12-27T01:02:42.377Z,8.07
2022-12-27T01:03:17.016Z,8.85
2022-12-27T01:03:53.321Z,8.40
2022-12-27T01:04:27.586Z,9.00
2022-12-27T01:05:01.118Z,7.50
2022-12-27T01:05:38.633Z,9.23
2022-12-27T01:06:12.587Z,12.80
2022-12-27T01:06:46.903Z,10.80
2022-12-27T01:07:22.484Z,9.18
2022-12-27T01:07:55.543Z,8.55
2022-12-27T01:08:30.387Z,9.05
2022-12-27T01:09:06.226Z,9.15
2022-12-27T01:09:39.061Z,10.55
2022-12-27T01:10:13.817Z,9.75
2022-12-27T01:10:49.790Z,12.02
2022-12-27T01:11:26.915Z,10.10
2022-12-27T01:12:00.489Z,9.32
2022-12-27T01:12:34.925Z,7.32
2022-12-27T01:13:09.429Z,8.32
2022-12-27T01:13:43.964Z,10.00
2022-12-27T01:14:18.779Z,8.27
2022-12-27T01:14:51.824Z,8.15
2022-12-27T01:15:25.203Z,8.82
2022-12-27T01:15:59.076Z,9.52
2022-12-27T01:16:34.166Z,8.15
2022-12-27T01:17:07.906Z,11.25
2022-12-27T01:17:43.573Z,10.82
2022-12-27T01:18:17.124Z,9.52
2022-12-27T01:18:51.791Z,10.82
2022-12-27T01:19:28.184Z,7.00
2022-12-27T01:20:01.559Z,7.93
2022-12-27T01:20:39.363Z,7.40
2022-12-27T01:21:13.504Z,12.30
2022-12-27T01:21:48.692Z,8.30
2022-12-27T01:22:22.277Z,6.97
2022-12-27T01:22:56.254Z,9.25
2022-12-27T01:23:32.716Z,8.57
2022-12-27T01:24:08.446Z,9.98
2022-12-27T01:24:41.640Z,9.38
2022-12-27T01:25:15.513Z,9.15
2022-12-27T01:25:48.267Z,10.05
2022-12-27T01:26:23.027Z,7.20
2022-12-27T01:26:57.128Z,9.48
2022-12-27T01:27:30.640Z,11.75
2022-12-27T01:28:05.149Z,10.00
2022-12-27T01:28:39.428Z,8.90
2022-12-27T01:29:13.619Z,9.43
2022-12-27T01:29:47.755Z,9.18
2022-12-27T01:30:21.885Z,8.07
2022-12-27T01:30:54.847Z,6.95
2022-12-27T01:31:30.500Z,7.57
2022-12-27T01:32:03.664Z,7.35
2022-12-27T01:32:37.761Z,9.20
2022-12-27T01:33:13.712Z,8.48
2022-12-27T01:33:49.980Z,7.70
2022-12-27T01:34:23.065Z,7.18
2022-12-27T01:34:56.095Z,10.80
2022-12-27T01:35:31.529Z,8.20
2022-12-27T01:36:13.574Z,7.57
2022-12-27T01:36:48.697Z,8.30
2022-12-27T01:37:23.313Z,8.57
2022-12-27T01:37:57.497Z,8.27
2022-12-27T01:38:30.997Z,7.30
2022-12-27T01:39:06.834Z,8.07
2022-12-27T01:39:39.944Z,10.57
2022-12-27T01:40:13.494Z,9.70
2022-12-27T01:40:46.984Z,10.13
2022-12-27T01:41:39.726Z,8.65
2022-12-27T01:42:35.344Z,9.77
2022-12-27T01:43:17.130Z,8.05
2022-12-27T01:43:50.239Z,8.90
2022-12-27T01:44:44.280Z,7.70
2022-12-27T01:45:20.372Z,10.45
2022-12-27T01:45:53.906Z,11.10
2022-12-27T01:46:29.811Z,9.02
2022-12-27T01:47:05.235Z,11.48
2022-12-27T01:47:44.933Z,8.88
2022-12-27T01:48:22.398Z,9.38
2022-12-27T01:48:56.607Z,8.98
2022-12-27T01:49:29.672Z,11.90
2022-12-27T01:50:06.516Z,9.35
2022-12-27T01:50:42.459Z,10.75
2022-12-27T01:51:16.230Z,11.32
2022-12-27T01:51:49.662Z,13.82
2022-12-27T01:52:25.052Z,8.80
2022-12-27T01:53:03.612Z,12.40
2022-12-27T01:53:39.514Z,11.93
2022-12-27T01:54:13.292Z,11.15
2022-12-27T01:54:46.054Z,11.10
2022-12-27T01:55:28.176Z,10.00
2022-12-27T01:56:03.587Z,10.35
2022-12-27T01:56:37.731Z,9.63
2022-12-27T01:57:11.479Z,10.30
2022-12-27T01:57:45.531Z,9.30
2022-12-27T01:58:21.505Z,10.85
2022-12-27T01:58:56.675Z,8.95
2022-12-27T01:59:30.093Z,10.63
2022-12-27T02:00:03.840Z,10.48
2022-12-27T02:00:39.531Z,10.38
2022-12-27T02:01:16.193Z,11.30
2022-12-27T02:01:50.683Z,10.82
2022-12-27T02:02:24.397Z,12.45
2022-12-27T02:02:59.315Z,11.93
2022-12-27T02:03:37.007Z,14.55
2022-12-27T02:04:11.693Z,9.55
2022-12-27T02:04:46.585Z,12.20
2022-12-27T02:05:21.240Z,11.25
2022-12-27T02:05:56.855Z,11.35
2022-12-27T02:06:31.509Z,12.38
2022-12-27T02:07:08.056Z,12.25
2022-12-27T02:08:08.548Z,11.93
2022-12-27T02:09:22.980Z,9.98
2022-12-27T02:09:57.496Z,12.50
2022-12-27T02:10:30.476Z,10.85
2022-12-27T02:11:05.079Z,11.80
2022-12-27T02:11:54.846Z,9.98
2022-12-27T02:12:28.569Z,13.80
2022-12-27T02:13:02.612Z,10.48
2022-12-27T02:13:39.255Z,12.00
2022-12-27T02:14:15.152Z,11.85
2022-12-27T02:15:10.259Z,10.20
2022-12-27T02:15:44.050Z,10.30
2022-12-27T02:16:20.526Z,10.02
2022-12-27T02:16:56.249Z,9.75
2022-12-27T02:17:31.533Z,10.20
2022-12-27T02:18:05.648Z,11.13
2022-12-27T02:18:41.828Z,13.32
2022-12-27T02:19:19.467Z,10.18
2022-12-27T02:19:58.436Z,12.48
2022-12-27T02:20:36.556Z,12.80
2022-12-27T02:21:28.219Z,11.63
2022-12-27T02:22:22.573Z,12.25
2022-12-27T02:23:39.403Z,8.63
2022-12-27T02:24:35.729Z,11.55
2022-12-27T02:25:17.289Z,10.65
2022-12-27T02:26:02.978Z,10.52
2022-12-27T02:26:59.161Z,9.98
2022-12-27T02:27:44.920Z,9.23
2022-12-27T02:28:27.973Z,10.82
2022-12-27T02:29:08.040Z,10.40
2022-12-27T02:30:01.640Z,10.77
2022-12-27T02:30:37.348Z,9.63
2022-12-27T02:31:12.948Z,10.50
2022-12-27T02:31:50.728Z,10.85
2022-12-27T02:32:29.492Z,11.45
2022-12-27T02:33:04.690Z,11.70
2022-12-27T02:33:40.789Z,11.35
2022-12-27T02:34:19.624Z,10.13
2022-12-27T02:35:00.005Z,11.68
2022-12-27T02:35:39.706Z,10.88
2022-12-27T02:36:14.099Z,12.63
2022-12-27T02:36:53.704Z,8.88
2022-12-27T02:37:32.940Z,7.95
2022-12-27T02:38:12.407Z,12.15
2022-12-27T02:38:49.351Z,10.35
2022-12-27T02:39:25.703Z,9.45
2022-12-27T02:40:21.975Z,9.77
2022-12-27T02:41:14.637Z,8.38
2022-12-27T02:42:07.306Z,11.70
2022-12-27T02:43:00.205Z,12.60
2022-12-27T02:43:52.404Z,9.80
2022-12-27T02:44:45.738Z,14.43
2022-12-27T02:45:39.297Z,10.07
2022-12-27T02:46:31.942Z,10.80
2022-12-27T02:47:25.093Z,8.75
2022-12-27T02:48:17.144Z,10.00
2022-12-27T02:49:12.453Z,10.00
2022-12-27T02:50:12.439Z,12.48
2022-12-27T02:51:10.267Z,10.90
2022-12-27T02:52:10.349Z,8.80
2022-12-27T02:53:04.166Z,10.02
2022-12-27T02:53:42.724Z,10.02
2022-12-27T02:54:19.924Z,9.85
2022-12-27T02:55:02.565Z,10.95
2022-12-27T02:56:03.834Z,9.93
2022-12-27T02:57:02.645Z,8.32
2022-12-27T02:57:40.332Z,10.20
2022-12-27T02:58:23.456Z,11.05
2022-12-27T02:59:05.530Z,10.20
2022-12-27T03:00:06.140Z,11.10
2022-12-27T03:01:04.545Z,9.32
2022-12-27T03:02:01.433Z,53.13
2022-12-27T03:02:58.774Z,18.40
2022-12-27T03:03:44.013Z,14.32
2022-12-27T03:04:26.117Z,9.00
2022-12-27T03:05:06.721Z,11.68
2022-12-27T03:05:46.960Z,9.50
2022-12-27T03:07:25.503Z,8.57
2022-12-27T03:08:03.019Z,9.00
2022-12-27T03:08:42.794Z,10.07
2022-12-27T03:09:47.027Z,8.40
2022-12-27T03:10:45.960Z,9.45
2022-12-27T03:11:39.087Z,9.52
2022-12-27T03:12:34.513Z,9.60
2022-12-27T03:13:34.614Z,9.25
2022-12-27T03:14:39.233Z,9.35
2022-12-27T03:15:37.620Z,9.40
2022-12-27T03:16:17.022Z,10.75
2022-12-27T03:16:58.437Z,8.07
2022-12-27T03:17:33.976Z,9.02
2022-12-27T03:18:09.842Z,10.18
2022-12-27T03:18:49.593Z,8.68
2022-12-27T03:19:48.614Z,9.82
2022-12-27T03:20:41.839Z,8.93
2022-12-27T03:21:35.725Z,8.85
2022-12-27T03:22:28.800Z,8.23
2022-12-27T03:23:22.237Z,21.50
2022-12-27T03:24:16.104Z,11.43
2022-12-27T03:25:07.870Z,7.90
2022-12-27T03:25:45.792Z,9.43
2022-12-27T03:26:20.422Z,7.90
2022-12-27T03:26:54.304Z,9.35
2022-12-27T03:27:33.485Z,10.13
2022-12-27T03:28:27.002Z,8.00
2022-12-27T03:29:19.212Z,8.02
2022-12-27T03:30:11.891Z,9.50
2022-12-27T03:31:06.499Z,10.68
2022-12-27T03:31:59.510Z,9.90
2022-12-27T03:33:01.762Z,8.40
2022-12-27T03:33:38.584Z,7.88
2022-12-27T03:34:36.266Z,7.88
2022-12-27T03:35:14.133Z,7.85
2022-12-27T03:36:06.194Z,10.75
2022-12-27T03:36:59.185Z,8.32
2022-12-27T03:37:52.312Z,9.65
2022-12-27T03:38:25.736Z,10.82
2022-12-27T03:39:06.003Z,9.98
2022-12-27T03:39:42.005Z,9.07
2022-12-27T03:40:22.042Z,18.73
2022-12-27T03:41:17.212Z,6.93
2022-12-27T03:42:11.906Z,9.60
2022-12-27T03:43:06.772Z,9.35
2022-12-27T03:43:41.486Z,8.95
2022-12-27T03:44:25.156Z,9.27
2022-12-27T03:44:58.675Z,9.60
2022-12-27T03:45:48.620Z,9.48
2022-12-27T03:46:36.054Z,9.35
2022-12-27T03:47:12.146Z,11.00
2022-12-27T03:47:50.354Z,12.35
2022-12-27T03:48:25.449Z,10.35
2022-12-27T03:49:03.280Z,9.65
2022-12-27T03:49:39.123Z,9.18
2022-12-27T03:50:17.063Z,9.13
2022-12-27T03:50:52.209Z,8.85
2022-12-27T03:51:28.659Z,12.15
2022-12-27T03:52:07.452Z,8.68
2022-12-27T03:52:42.622Z,9.10
2022-12-27T03:53:18.463Z,10.85
2022-12-27T03:53:54.113Z,9.23
2022-12-27T03:54:31.107Z,9.93
2022-12-27T03:55:06.721Z,10.10
2022-12-27T03:55:40.505Z,8.30
2022-12-27T03:56:14.089Z,9.25
2022-12-27T03:56:49.054Z,7.95
2022-12-27T03:57:23.343Z,10.18
2022-12-27T03:57:56.865Z,9.43
2022-12-27T03:58:32.292Z,9.00
2022-12-27T03:59:06.683Z,8.10
2022-12-27T03:59:40.587Z,9.30
2022-12-27T04:00:16.142Z,10.30
2022-12-27T04:00:50.108Z,10.57
2022-12-27T04:01:25.604Z,10.10
2022-12-27T04:02:01.156Z,9.40
2022-12-27T04:02:35.547Z,10.10
2022-12-27T04:03:10.368Z,9.95
2022-12-27T04:03:45.762Z,8.80
2022-12-27T04:04:20.848Z,9.70
2022-12-27T04:04:53.911Z,9.63
2022-12-27T04:05:28.997Z,8.73
2022-12-27T04:06:02.871Z,10.43
2022-12-27T04:06:35.867Z,9.07
2022-12-27T04:07:11.096Z,8.02
2022-12-27T04:08:02.524Z,11.23
2022-12-27T04:08:54.332Z,8.88
2022-12-27T04:09:46.231Z,8.38
2022-12-27T04:10:38.565Z,9.40
2022-12-27T04:11:30.889Z,9.57
2022-12-27T04:12:23.244Z,10.13
2022-12-27T04:13:14.971Z,9.57
2022-12-27T04:14:06.783Z,9.95
2022-12-27T04:14:58.788Z,9.13
2022-12-27T04:15:51.057Z,10.32
2022-12-27T04:16:44.696Z,8.38
2022-12-27T04:17:37.146Z,9.88
2022-12-27T04:18:28.880Z,10.40
2022-12-27T04:19:21.349Z,8.73
2022-12-27T04:20:13.537Z,11.07
2022-12-27T04:21:04.637Z,11.00
2022-12-27T04:21:57.569Z,12.65
2022-12-27T04:22:49.703Z,11.07
2022-12-27T04:23:41.932Z,11.48
2022-12-27T04:24:34.155Z,10.75
2022-12-27T04:25:25.912Z,12.18
2022-12-27T04:26:20.882Z,12.27
2022-12-27T04:27:13.288Z,9.98
2022-12-27T04:28:07.064Z,10.02
2022-12-27T04:28:59.166Z,9.73
2022-12-27T04:29:51.749Z,57.10
2022-12-27T04:30:43.572Z,12.60
2022-12-27T04:31:35.860Z,12.93
2022-12-27T04:32:29.505Z,10.57
2022-12-27T04:33:21.786Z,10.68
2022-12-27T04:34:13.951Z,10.32
2022-12-27T04:34:49.305Z,9.98
2022-12-27T04:35:22.279Z,13.65
2022-12-27T04:36:01.403Z,14.25
2022-12-27T04:36:37.649Z,11.82
2022-12-27T04:37:13.959Z,11.52
2022-12-27T04:37:48.812Z,10.05
2022-12-27T04:38:22.383Z,9.23
2022-12-27T04:38:56.945Z,10.45
2022-12-27T04:39:30.723Z,13.13
2022-12-27T04:40:31.517Z,12.20
2022-12-27T04:41:23.081Z,14.15
2022-12-27T04:42:14.380Z,10.55
2022-12-27T04:43:05.722Z,10.88
2022-12-27T04:43:58.188Z,14.75
2022-12-27T04:44:50.483Z,13.90
2022-12-27T04:45:42.317Z,11.75
2022-12-27T04:46:36.315Z,11.43
2022-12-27T04:47:31.163Z,10.98
2022-12-27T04:48:24.227Z,13.77
2022-12-27T04:49:16.424Z,13.32
2022-12-27T04:50:07.915Z,19.08
2022-12-27T04:50:59.372Z,16.27
2022-12-27T04:51:51.328Z,14.82
2022-12-27T04:52:43.631Z,14.20
2022-12-27T04:53:37.474Z,16.80
2022-12-27T04:54:34.445Z,16.92
2022-12-27T04:55:14.301Z,15.00
2022-12-27T04:55:47.903Z,17.48
2022-12-27T04:56:22.799Z,16.33
2022-12-27T04:56:57.628Z,15.75
2022-12-27T04:57:31.253Z,17.08
2022-12-27T04:58:04.240Z,18.55
2022-12-27T04:58:58.305Z,15.25
2022-12-27T04:59:49.899Z,17.40
2022-12-27T05:00:42.687Z,16.67
2022-12-27T05:01:35.053Z,19.75
2022-12-27T05:02:08.886Z,21.45
2022-12-27T05:02:44.022Z,18.85
2022-12-27T05:03:19.512Z,21.67
2022-12-27T05:03:54.189Z,20.80
2022-12-27T05:04:28.499Z,21.92
2022-12-27T05:05:03.432Z,17.08
2022-12-27T05:05:40.054Z,19.27
2022-12-27T05:06:13.860Z,19.80
2022-12-27T05:06:46.989Z,20.92
2022-12-27T05:07:38.760Z,21.92
2022-12-27T05:08:31.925Z,25.65
2022-12-27T05:09:24.109Z,20.42
2022-12-27T05:10:15.956Z,20.20
2022-12-27T05:11:07.779Z,18.08
2022-12-27T05:12:14.765Z,19.38
2022-12-27T05:13:06.057Z,21.35
2022-12-27T05:13:58.387Z,18.73
2022-12-27T05:14:33.226Z,18.67
2022-12-27T05:15:07.607Z,19.45
2022-12-27T05:15:41.150Z,19.45
2022-12-27T05:16:16.572Z,17.75
2022-12-27T05:16:50.931Z,21.65
2022-12-27T05:17:24.080Z,18.70
2022-12-27T05:18:00.264Z,20.23
2022-12-27T05:18:33.707Z,20.38
2022-12-27T05:19:08.770Z,19.30
2022-12-27T05:19:43.383Z,21.45
2022-12-27T05:20:16.793Z,22.33
2022-12-27T05:20:49.562Z,19.80
2022-12-27T05:21:23.944Z,23.45
2022-12-27T05:22:15.845Z,21.30
2022-12-27T05:23:08.633Z,19.70
2022-12-27T05:24:05.392Z,20.10
2022-12-27T05:24:58.304Z,23.08
2022-12-27T05:25:38.640Z,20.45
2022-12-27T05:26:14.567Z,23.42
2022-12-27T05:26:48.643Z,19.00
2022-12-27T05:27:22.428Z,18.85
2022-12-27T05:27:56.569Z,19.25
2022-12-27T05:28:31.868Z,21.52
2022-12-27T05:29:04.641Z,19.63
2022-12-27T05:29:40.512Z,22.45
2022-12-27T05:30:14.971Z,20.40
2022-12-27T05:30:49.433Z,20.02
2022-12-27T05:31:23.395Z,18.52
2022-12-27T05:31:58.076Z,21.83
2022-12-27T05:32:31.690Z,19.88
2022-12-27T05:33:07.770Z,21.38
2022-12-27T05:33:43.396Z,21.27
2022-12-27T05:34:18.213Z,22.10
2022-12-27T05:34:52.942Z,19.98
2022-12-27T05:35:27.179Z,18.15
2022-12-27T05:36:01.979Z,23.38
2022-12-27T05:36:36.233Z,20.05
2022-12-27T05:37:09.601Z,19.00
2022-12-27T05:37:43.275Z,21.27
2022-12-27T05:38:17.865Z,19.38
2022-12-27T05:38:52.104Z,18.58
2022-12-27T05:39:25.549Z,20.02
2022-12-27T05:40:01.971Z,19.83
2022-12-27T05:40:37.094Z,21.92
2022-12-27T05:41:11.493Z,16.00
2022-12-27T05:41:46.027Z,20.67
2022-12-27T05:42:19.032Z,17.75
2022-12-27T05:42:53.302Z,21.42
2022-12-27T05:43:28.685Z,19.85
2022-12-27T05:44:06.799Z,18.85
2022-12-27T05:44:41.573Z,18.58
2022-12-27T05:45:16.726Z,20.25
2022-12-27T05:45:51.362Z,22.73
2022-12-27T05:46:25.855Z,20.17
2022-12-27T05:47:01.236Z,18.70
2022-12-27T05:47:34.516Z,19.20
2022-12-27T05:48:10.506Z,18.48
2022-12-27T05:48:44.474Z,18.25
2022-12-27T05:49:20.141Z,16.88
2022-12-27T05:49:54.074Z,22.35
2022-12-27T05:50:29.119Z,16.20
2022-12-27T05:51:18.252Z,16.58
2022-12-27T05:51:52.323Z,18.83
2022-12-27T05:52:26.478Z,14.65
2022-12-27T05:53:02.418Z,18.13
2022-12-27T05:53:36.303Z,17.63
2022-12-27T05:54:10.434Z,17.48
2022-12-27T05:54:45.939Z,16.23
2022-12-27T05:55:20.049Z,17.35
2022-12-27T05:55:57.142Z,16.17
2022-12-27T05:56:32.873Z,15.00
2022-12-27T05:57:06.181Z,17.23
2022-12-27T05:57:40.504Z,17.08
2022-12-27T05:58:18.477Z,16.63
2022-12-27T05:58:55.298Z,13.93
2022-12-27T05:59:29.999Z,16.42
2022-12-27T06:00:04.575Z,16.83
2022-12-27T06:00:47.657Z,21.23
2022-12-27T06:01:20.729Z,14.10
2022-12-27T06:01:54.200Z,21.70
2022-12-27T06:02:30.148Z,14.98
2022-12-27T06:03:05.934Z,17.23
2022-12-27T06:03:42.317Z,15.30
2022-12-27T06:04:16.823Z,18.58
2022-12-27T06:04:50.011Z,16.17
2022-12-27T06:05:25.607Z,13.40
2022-12-27T06:06:02.290Z,18.30
2022-12-27T06:06:35.473Z,16.38
2022-12-27T06:07:12.407Z,16.30
2022-12-27T06:07:47.060Z,13.30
2022-12-27T06:08:20.978Z,16.15
2022-12-27T06:08:54.549Z,16.13
2022-12-27T06:09:28.102Z,17.77
2022-12-27T06:10:03.163Z,17.27
2022-12-27T06:10:38.455Z,14.30
2022-12-27T06:11:13.690Z,17.05
2022-12-27T06:11:47.728Z,17.48
2022-12-27T06:12:21.748Z,16.40
2022-12-27T06:12:55.311Z,15.50
2022-12-27T06:13:30.476Z,13.00
2022-12-27T06:14:04.548Z,16.25
2022-12-27T06:14:38.517Z,15.55
2022-12-27T06:15:13.723Z,18.05
2022-12-27T06:15:48.331Z,17.65
2022-12-27T06:16:23.117Z,16.83
2022-12-27T06:16:58.839Z,16.85
2022-12-27T06:17:32.997Z,15.98
2022-12-27T06:18:08.529Z,15.60
2022-12-27T06:18:43.463Z,16.27
2022-12-27T06:19:18.037Z,18.88
2022-12-27T06:19:57.043Z,15.18
2022-12-27T06:20:31.186Z,16.70
2022-12-27T06:21:06.928Z,18.80
2022-12-27T06:21:41.559Z,16.00
2022-12-27T06:22:16.241Z,16.80
2022-12-27T06:22:49.678Z,17.77
2022-12-27T06:23:23.445Z,16.88
2022-12-27T06:23:58.283Z,18.30
2022-12-27T06:24:32.928Z,16.20
2022-12-27T06:25:12.474Z,15.73
2022-12-27T06:25:48.244Z,14.27
2022-12-27T06:26:23.837Z,17.90
2022-12-27T06:26:59.797Z,16.92
2022-12-27T06:27:35.658Z,17.33
2022-12-27T06:28:10.060Z,16.92
2022-12-27T06:28:44.931Z,20.33
2022-12-27T06:29:19.046Z,22.02
2022-12-27T06:29:53.144Z,17.90
2022-12-27T06:30:32.888Z,19.45
2022-12-27T06:31:09.596Z,16.92
2022-12-27T06:31:43.972Z,19.10
2022-12-27T06:32:18.119Z,22.67
2022-12-27T06:32:52.604Z,19.92
2022-12-27T06:33:27.377Z,17.83
2022-12-27T06:34:03.572Z,19.42
2022-12-27T06:34:38.140Z,17.55
2022-12-27T06:35:11.438Z,21.85
2022-12-27T06:35:44.873Z,23.20
2022-12-27T06:36:20.137Z,19.48
2022-12-27T06:36:54.531Z,22.83
2022-12-27T06:37:28.740Z,27.27
2022-12-27T06:38:03.411Z,24.02
2022-12-27T06:38:36.961Z,19.23
2022-12-27T06:39:10.496Z,21.13
2022-12-27T06:39:44.536Z,18.67
2022-12-27T06:40:17.594Z,18.83
2022-12-27T06:40:51.253Z,22.45
2022-12-27T06:41:25.949Z,21.10
2022-12-27T06:42:02.311Z,26.20
2022-12-27T06:42:36.796Z,19.73
2022-12-27T06:43:11.540Z,21.58
2022-12-27T06:43:46.801Z,18.73
2022-12-27T06:44:19.870Z,19.50
2022-12-27T06:44:54.857Z,28.05
2022-12-27T06:45:29.419Z,21.00
2022-12-27T06:46:04.219Z,20.90
2022-12-27T06:46:38.843Z,23.70
2022-12-27T06:47:13.505Z,17.77
2022-12-27T06:47:47.277Z,18.80
2022-12-27T06:48:22.380Z,17.73
2022-12-27T06:48:56.439Z,14.32
2022-12-27T06:49:31.604Z,17.35
2022-12-27T06:50:05.417Z,16.30
2022-12-27T06:50:41.090Z,18.00
2022-12-27T06:51:16.735Z,19.75
2022-12-27T06:51:59.055Z,19.67
2022-12-27T06:52:34.049Z,18.45
2022-12-27T06:53:08.281Z,16.63
2022-12-27T06:53:42.393Z,17.85
2022-12-27T06:54:17.549Z,21.05
2022-12-27T06:54:51.632Z,15.57
2022-12-27T06:55:25.205Z,19.23
2022-12-27T06:56:00.877Z,20.27
2022-12-27T06:56:35.273Z,20.83
2022-12-27T06:57:09.945Z,17.40
2022-12-27T06:57:44.649Z,19.17
2022-12-27T06:58:18.715Z,19.35
2022-12-27T06:58:53.122Z,17.52
2022-12-27T06:59:26.118Z,18.15
2022-12-27T07:00:01.553Z,15.98
2022-12-27T07:00:34.920Z,18.55
2022-12-27T07:01:08.499Z,23.80
2022-12-27T07:01:44.468Z,18.20
2022-12-27T07:02:17.741Z,19.20
2022-12-27T07:02:52.130Z,17.05
2022-12-27T07:03:26.949Z,17.55
2022-12-27T07:04:00.779Z,18.23
2022-12-27T07:04:36.297Z,17.92
2022-12-27T07:05:12.103Z,17.10
2022-12-27T07:05:45.187Z,17.67
2022-12-27T07:06:20.613Z,19.75
2022-12-27T07:06:55.174Z,18.27
2022-12-27T07:07:30.311Z,17.48
2022-12-27T07:08:06.948Z,19.95
2022-12-27T07:08:41.145Z,17.30
2022-12-27T07:09:15.753Z,19.55
2022-12-27T07:09:51.573Z,17.75
2022-12-27T07:10:25.726Z,16.60
2022-12-27T07:11:01.413Z,21.15
2022-12-27T07:11:37.550Z,17.67
2022-12-27T07:12:11.377Z,16.88
2022-12-27T07:12:44.419Z,17.38
2022-12-27T07:13:19.578Z,18.58
2022-12-27T07:13:53.591Z,21.58
2022-12-27T07:14:27.587Z,16.65
2022-12-27T07:15:02.020Z,17.27
2022-12-27T07:15:36.209Z,16.73
2022-12-27T07:16:10.672Z,18.58
2022-12-27T07:16:45.432Z,18.27
2022-12-27T07:17:20.112Z,17.27
2022-12-27T07:17:53.139Z,19.33
2022-12-27T07:18:29.380Z,16.67
2022-12-27T07:19:03.425Z,18.83
2022-12-27T07:19:39.984Z,21.10
2022-12-27T07:20:13.437Z,21.13
2022-12-27T07:20:47.546Z,17.73
2022-12-27T07:21:22.757Z,18.83
2022-12-27T07:21:56.423Z,21.02
2022-12-27T07:22:32.360Z,21.33
2022-12-27T07:23:06.189Z,19.48
2022-12-27T07:23:40.577Z,21.00
2022-12-27T07:24:15.528Z,20.42
2022-12-27T07:24:49.425Z,19.15
2022-12-27T07:25:24.015Z,18.15
2022-12-27T07:26:05.261Z,18.63
2022-12-27T07:26:40.226Z,20.73
2022-12-27T07:27:17.001Z,19.27
2022-12-27T07:27:50.009Z,25.33
2022-12-27T07:28:24.541Z,19.75
2022-12-27T07:29:01.069Z,19.45
2022-12-27T07:29:38.949Z,19.50
2022-12-27T07:30:16.271Z,21.25
2022-12-27T07:30:49.812Z,17.33
2022-12-27T07:31:25.353Z,18.38
2022-12-27T07:32:00.344Z,20.63
2022-12-27T07:32:35.423Z,20.20
2022-12-27T07:33:09.540Z,15.75
2022-12-27T07:33:44.850Z,19.33
2022-12-27T07:34:26.751Z,35.42
2022-12-27T07:35:02.852Z,23.85
2022-12-27T07:35:42.099Z,20.35
2022-12-27T07:36:21.412Z,20.92
2022-12-27T07:36:55.616Z,20.92
2022-12-27T07:37:30.159Z,22.42
2022-12-27T07:38:05.096Z,19.98
2022-12-27T07:38:39.044Z,21.83
2022-12-27T07:39:14.453Z,21.73
2022-12-27T07:39:48.313Z,19.15
2022-12-27T07:40:22.727Z,29.20
2022-12-27T07:41:00.749Z,21.45
2022-12-27T07:41:36.118Z,20.50
2022-12-27T07:42:09.972Z,21.55
2022-12-27T07:42:45.537Z,18.92
2022-12-27T07:43:18.817Z,18.10
2022-12-27T07:43:53.474Z,19.17
2022-12-27T07:44:27.907Z,22.25
2022-12-27T07:45:02.015Z,16.42
2022-12-27T07:45:36.129Z,19.40
2022-12-27T07:46:13.184Z,19.35
2022-12-27T07:46:47.388Z,19.45
2022-12-27T07:47:22.060Z,16.52
2022-12-27T07:47:55.723Z,17.90
2022-12-27T07:48:29.504Z,22.33
2022-12-27T07:49:05.997Z,16.00
2022-12-27T07:49:39.721Z,18.58
2022-12-27T07:50:14.924Z,22.40
2022-12-27T07:50:56.445Z,15.93
2022-12-27T07:51:30.150Z,24.48
2022-12-27T07:52:04.750Z,15.00
2022-12-27T07:52:39.192Z,19.25
2022-12-27T07:53:12.836Z,17.70
2022-12-27T07:53:50.929Z,18.30
2022-12-27T07:54:25.021Z,16.42
2022-12-27T07:54:58.948Z,15.05
2022-12-27T07:55:34.239Z,16.45
2022-12-27T07:56:07.879Z,18.00
2022-12-27T07:56:42.857Z,16.98
2022-12-27T07:57:17.683Z,15.77
2022-12-27T07:57:50.936Z,18.20
2022-12-27T07:58:25.230Z,17.92
2022-12-27T07:59:01.347Z,14.88
2022-12-27T07:59:34.337Z,17.27
2022-12-27T08:00:08.253Z,16.60
2022-12-27T08:00:47.630Z,15.70
2022-12-27T08:01:22.185Z,17.15
2022-12-27T08:02:05.337Z,17.45
2022-12-27T08:02:40.100Z,18.95
2022-12-27T08:03:14.315Z,21.33
2022-12-27T08:03:49.801Z,16.00
2022-12-27T08:04:25.703Z,19.25
2022-12-27T08:05:00.416Z,21.60
2022-12-27T08:05:39.103Z,16.83
2022-12-27T08:06:21.925Z,13.07
2022-12-27T08:06:58.191Z,18.50
2022-12-27T08:07:32.052Z,17.10
2022-12-27T08:08:08.400Z,16.92
2022-12-27T08:08:44.623Z,20.58
2022-12-27T08:09:22.689Z,16.23
2022-12-27T08:09:56.591Z,19.85
2022-12-27T08:10:29.727Z,21.38
2022-12-27T08:11:05.946Z,16.98
2022-12-27T08:11:41.319Z,17.65
2022-12-27T08:12:16.265Z,19.67
2022-12-27T08:12:52.934Z,18.95
2022-12-27T08:13:27.429Z,15.70
2022-12-27T08:14:01.929Z,15.10
2022-12-27T08:14:35.513Z,16.48
2022-12-27T08:15:11.773Z,20.38
2022-12-27T08:15:46.901Z,17.48
2022-12-27T08:16:24.093Z,16.83
2022-12-27T08:16:59.578Z,16.52
2022-12-27T08:17:34.363Z,19.38
2022-12-27T08:18:08.164Z,19.83
2022-12-27T08:18:42.283Z,19.15
2022-12-27T08:19:18.038Z,18.13
2022-12-27T08:19:53.104Z,20.92
2022-12-27T08:20:28.035Z,17.77
2022-12-27T08:21:03.552Z,22.63